createdAt,value
2018-09-28T00:02:01.220Z,9.60
2018-09-28T00:04:29.601Z,9.60
2018-09-28T00:06:58.117Z,9.60
2018-09-28T00:09:26.420Z,9.60
2018-09-28T00:11:59.239Z,9.50
2018-09-28T00:14:27.492Z,9.60
2018-09-28T00:16:56.004Z,9.50
2018-09-28T00:19:24.414Z,9.50
2018-09-28T00:21:53.080Z,9.40
2018-09-28T00:24:21.462Z,9.40
2018-09-28T00:26:55.434Z,9.40
2018-09-28T00:29:23.955Z,9.40
2018-09-28T00:31:52.238Z,9.30
2018-09-28T00:34:20.528Z,9.30
2018-09-28T00:36:51.089Z,9.20
2018-09-28T00:39:19.789Z,9.20
2018-09-28T00:41:48.354Z,9.10
2018-09-28T00:44:17.303Z,9.10
2018-09-28T00:46:49.188Z,9.10
2018-09-28T00:49:17.552Z,9.00
2018-09-28T00:51:46.200Z,9.00
2018-09-28T00:54:14.559Z,9.00
2018-09-28T00:56:45.126Z,8.90
2018-09-28T00:59:13.518Z,8.90
2018-09-28T01:01:42.021Z,8.90
2018-09-28T01:04:10.518Z,8.80
2018-09-28T01:06:38.833Z,8.80
2018-09-28T01:09:09.958Z,8.80
2018-09-28T01:11:38.600Z,8.80
2018-09-28T01:14:07.092Z,8.80
2018-09-28T01:16:35.701Z,8.80
2018-09-28T01:19:04.146Z,8.80
2018-09-28T01:21:32.410Z,8.80
2018-09-28T01:24:00.786Z,8.80
2018-09-28T01:26:37.040Z,8.80
2018-09-28T01:29:05.473Z,8.80
2018-09-28T01:31:33.961Z,8.80
2018-09-28T01:34:03.712Z,8.80
2018-09-28T01:36:32.305Z,8.80
2018-09-28T01:39:00.823Z,8.80
2018-09-28T01:41:29.199Z,8.70
2018-09-28T01:43:57.579Z,8.70
2018-09-28T01:46:26.215Z,8.70
2018-09-28T01:48:54.589Z,8.70
2018-09-28T01:51:22.980Z,8.70
2018-09-28T01:53:58.011Z,8.70
2018-09-28T01:56:26.543Z,8.70
2018-09-28T01:58:54.948Z,8.60
2018-09-28T02:01:23.564Z,8.60
2018-09-28T02:03:52.168Z,8.50
2018-09-28T02:06:20.595Z,8.50
2018-09-28T02:08:48.951Z,8.50
2018-09-28T02:11:17.368Z,8.50
2018-09-28T02:13:53.130Z,8.50
2018-09-28T02:16:21.527Z,8.50
2018-09-28T02:18:50.014Z,8.40
2018-09-28T02:21:18.516Z,8.40
2018-09-28T02:23:46.843Z,8.40
2018-09-28T02:26:15.353Z,8.40
2018-09-28T02:28:43.727Z,8.40
2018-09-28T02:31:12.215Z,8.40
2018-09-28T02:33:40.520Z,8.30
2018-09-28T02:36:09.427Z,8.30
2018-09-28T02:38:38.210Z,8.30
2018-09-28T02:41:06.838Z,8.30
2018-09-28T02:43:35.254Z,8.20
2018-09-28T02:46:03.426Z,8.20
2018-09-28T02:48:31.644Z,8.20
2018-09-28T02:51:00.354Z,8.20
2018-09-28T02:53:28.733Z,8.10
2018-09-28T02:55:57.253Z,8.10
2018-09-28T02:58:25.644Z,8.10
2018-09-28T03:00:54.152Z,8.10
2018-09-28T03:03:22.554Z,8.10
2018-09-28T03:05:50.964Z,8.10
2018-09-28T03:08:19.345Z,8.00
2018-09-28T03:10:48.484Z,8.00
2018-09-28T03:13:17.377Z,8.00
2018-09-28T03:15:45.855Z,8.00
2018-09-28T03:18:14.170Z,8.00
2018-09-28T03:20:45.944Z,8.00
2018-09-28T03:23:14.485Z,8.00
2018-09-28T03:25:42.978Z,8.00
2018-09-28T03:28:11.318Z,8.10
2018-09-28T03:30:39.842Z,8.00
2018-09-28T03:33:08.237Z,8.00
2018-09-28T03:35:36.627Z,8.00
2018-09-28T03:38:05.148Z,8.10
2018-09-28T03:40:33.631Z,8.10
2018-09-28T03:43:01.943Z,8.10
2018-09-28T03:45:30.233Z,8.10
2018-09-28T03:47:58.553Z,8.10
2018-09-28T03:50:27.119Z,8.10
2018-09-28T03:52:55.462Z,8.10
2018-09-28T03:55:30.181Z,8.10
2018-09-28T03:57:58.694Z,8.10
2018-09-28T04:00:27.403Z,8.10
2018-09-28T04:02:55.753Z,8.10
2018-09-28T04:05:24.218Z,8.10
2018-09-28T04:08:02.124Z,8.00
2018-09-28T04:10:30.612Z,8.00
2018-09-28T04:12:58.951Z,8.00
2018-09-28T04:15:27.413Z,8.00
2018-09-28T04:17:56.025Z,7.90
2018-09-28T04:20:24.389Z,7.90
2018-09-28T04:22:52.708Z,7.90
2018-09-28T04:25:21.207Z,7.90
2018-09-28T04:27:49.819Z,7.90
2018-09-28T04:30:18.103Z,7.90
2018-09-28T04:32:46.391Z,7.90
2018-09-28T04:35:14.801Z,7.80
2018-09-28T04:37:42.988Z,7.80
2018-09-28T04:40:11.395Z,7.80
2018-09-28T04:42:40.017Z,7.80
2018-09-28T04:45:08.543Z,7.70
2018-09-28T04:47:36.809Z,7.70
2018-09-28T04:50:05.385Z,7.70
2018-09-28T04:52:40.258Z,7.70
2018-09-28T04:55:08.521Z,7.70
2018-09-28T04:57:37.038Z,7.70
2018-09-28T05:00:05.664Z,7.70
2018-09-28T05:02:33.756Z,7.70
2018-09-28T05:05:02.130Z,7.70
2018-09-28T05:07:30.545Z,7.80
2018-09-28T05:09:59.276Z,7.80
2018-09-28T05:12:27.538Z,7.80
2018-09-28T05:14:57.182Z,7.90
2018-09-28T05:17:25.789Z,7.90
2018-09-28T05:19:54.181Z,8.00
2018-09-28T05:22:22.622Z,8.00
2018-09-28T05:24:51.189Z,8.10
2018-09-28T05:27:19.581Z,8.10
2018-09-28T05:29:48.187Z,8.10
2018-09-28T05:32:16.705Z,8.20
2018-09-28T05:34:45.588Z,8.20
2018-09-28T05:37:13.873Z,8.20
2018-09-28T05:39:42.194Z,8.30
2018-09-28T05:42:10.702Z,8.40
2018-09-28T05:44:39.207Z,8.40
2018-09-28T05:47:07.706Z,8.50
2018-09-28T05:49:35.970Z,8.60
2018-09-28T05:52:04.497Z,8.70
2018-09-28T05:54:33.002Z,8.70
2018-09-28T05:57:01.297Z,8.80
2018-09-28T05:59:35.134Z,8.90
2018-09-28T06:02:08.728Z,9.00
2018-09-28T06:04:42.537Z,9.20
2018-09-28T06:07:10.973Z,9.30
2018-09-28T06:09:39.449Z,9.50
2018-09-28T06:12:08.069Z,9.60
2018-09-28T06:15:00.509Z,9.80
2018-09-28T06:17:28.779Z,10.00
2018-09-28T06:19:57.271Z,10.30
2018-09-28T06:22:43.277Z,10.50
2018-09-28T06:25:11.684Z,10.70
2018-09-28T06:27:40.095Z,11.20
2018-09-28T06:30:08.612Z,12.60
2018-09-28T06:35:40.717Z,17.00
2018-09-28T06:38:09.060Z,19.60
2018-09-28T06:40:37.251Z,21.40
2018-09-28T06:43:05.832Z,21.90
2018-09-28T06:45:45.835Z,21.60
2018-09-28T06:48:14.428Z,22.00
2018-09-28T06:50:42.526Z,22.40
2018-09-28T06:53:10.622Z,22.40
2018-09-28T06:55:46.590Z,23.50
2018-09-28T06:58:15.213Z,25.20
2018-09-28T07:00:43.459Z,27.10
2018-09-28T07:03:15.981Z,28.50
2018-09-28T07:05:44.385Z,29.80
2018-09-28T07:08:12.555Z,30.90
2018-09-28T07:10:41.267Z,31.80
2018-09-28T07:13:09.869Z,32.60
2018-09-28T07:15:38.042Z,33.40
2018-09-28T07:18:06.576Z,34.00
2018-09-28T07:20:34.944Z,34.50
2018-09-28T07:23:07.145Z,34.90
2018-09-28T07:25:35.767Z,35.30
2018-09-28T07:28:04.186Z,35.60
2018-09-28T07:30:32.793Z,36.00
2018-09-28T07:33:07.408Z,36.60
2018-09-28T07:35:35.772Z,37.10
2018-09-28T07:38:04.304Z,37.40
2018-09-28T07:40:36.592Z,37.70
2018-09-28T07:43:05.080Z,38.00
2018-09-28T07:45:33.483Z,38.30
2018-09-28T07:48:01.901Z,38.60
2018-09-28T07:50:31.409Z,38.80
2018-09-28T07:52:59.695Z,39.00
2018-09-28T07:55:27.817Z,39.20
2018-09-28T07:57:56.229Z,39.30
2018-09-28T08:00:28.381Z,39.20
2018-09-28T08:02:56.871Z,39.10
2018-09-28T08:05:25.289Z,39.10
2018-09-28T08:07:53.791Z,39.10
2018-09-28T08:10:22.407Z,38.90
2018-09-28T08:12:56.015Z,38.80
2018-09-28T08:15:24.417Z,38.60
2018-09-28T08:17:52.520Z,38.50
2018-09-28T08:20:26.114Z,38.70
2018-09-28T08:22:54.636Z,38.90
2018-09-28T08:25:23.233Z,39.00
2018-09-28T08:27:51.615Z,39.30
2018-09-28T08:30:20.153Z,39.50
2018-09-28T08:32:48.540Z,39.60
2018-09-28T08:35:17.034Z,39.80
2018-09-28T08:37:45.344Z,40.00
2018-09-28T08:40:14.034Z,39.90
2018-09-28T08:42:42.155Z,39.50
2018-09-28T08:45:10.040Z,39.00
2018-09-28T08:47:38.313Z,38.50
2018-09-28T08:50:17.984Z,37.90
2018-09-28T08:52:46.032Z,37.10
2018-09-28T08:55:14.541Z,35.60
2018-09-28T08:58:03.847Z,33.40
2018-09-28T09:00:32.221Z,30.90
2018-09-28T09:03:00.285Z,28.60
2018-09-28T09:05:28.591Z,27.20
2018-09-28T09:07:56.901Z,26.00
2018-09-28T09:10:25.304Z,25.00
2018-09-28T09:12:53.708Z,24.30
2018-09-28T09:15:22.092Z,23.80
2018-09-28T09:17:51.701Z,23.40
2018-09-28T09:20:20.044Z,23.00
2018-09-28T09:22:48.387Z,22.50
2018-09-28T09:25:16.858Z,22.10
2018-09-28T09:27:45.418Z,21.70
2018-09-28T09:30:14.017Z,21.40
2018-09-28T09:32:42.149Z,21.20
2018-09-28T09:35:12.540Z,21.10
2018-09-28T09:37:40.671Z,20.90
2018-09-28T09:40:09.019Z,20.70
2018-09-28T09:42:37.540Z,20.40
2018-09-28T09:45:06.172Z,20.30
2018-09-28T09:47:34.593Z,20.30
2018-09-28T09:50:03.168Z,20.10
2018-09-28T09:52:31.661Z,20.00
2018-09-28T09:55:00.064Z,19.90
2018-09-28T09:57:28.582Z,19.90
2018-09-28T09:59:57.272Z,19.70
2018-09-28T10:02:31.206Z,19.60
2018-09-28T10:04:59.398Z,19.50
2018-09-28T10:07:27.800Z,19.50
2018-09-28T10:09:56.218Z,19.40
2018-09-28T10:12:24.561Z,19.50
2018-09-28T10:14:53.012Z,19.50
2018-09-28T10:17:21.378Z,19.50
2018-09-28T10:19:50.011Z,19.40
2018-09-28T10:22:18.503Z,19.40
2018-09-28T10:24:46.806Z,19.40
2018-09-28T10:27:15.319Z,19.40
2018-09-28T10:29:44.161Z,19.30
2018-09-28T10:32:12.503Z,19.20
2018-09-28T10:34:40.820Z,19.00
2018-09-28T10:37:09.081Z,18.80
2018-09-28T10:39:37.448Z,18.60
2018-09-28T10:42:05.817Z,18.40
2018-09-28T10:44:34.311Z,18.20
2018-09-28T10:47:02.837Z,17.90
2018-09-28T10:49:31.297Z,17.70
2018-09-28T10:51:59.785Z,17.50
2018-09-28T10:54:28.120Z,17.30
2018-09-28T10:56:56.511Z,17.00
2018-09-28T10:59:25.021Z,16.90
2018-09-28T11:01:53.314Z,16.70
2018-09-28T11:04:21.980Z,16.50
2018-09-28T11:06:50.198Z,16.50
2018-09-28T11:09:18.524Z,16.50
2018-09-28T11:11:46.909Z,16.30
2018-09-28T11:14:15.316Z,16.20
2018-09-28T11:16:43.591Z,16.10
2018-09-28T11:19:12.017Z,16.00
2018-09-28T11:21:40.649Z,15.90
2018-09-28T11:24:09.200Z,15.80
2018-09-28T11:26:37.599Z,15.80
2018-09-28T11:29:05.996Z,15.80
2018-09-28T11:31:34.515Z,15.60
2018-09-28T11:34:03.321Z,15.40
2018-09-28T11:36:31.826Z,15.10
2018-09-28T11:39:00.128Z,14.80
2018-09-28T11:41:28.641Z,14.50
2018-09-28T11:43:57.229Z,14.20
2018-09-28T11:46:25.602Z,13.90
2018-09-28T11:48:53.920Z,13.70
2018-09-28T11:51:22.026Z,13.60
2018-09-28T11:53:50.524Z,13.50
2018-09-28T11:56:19.121Z,13.30
2018-09-28T11:58:47.527Z,13.20
2018-09-28T12:01:15.805Z,13.10
2018-09-28T12:03:44.438Z,13.00
2018-09-28T12:06:12.992Z,12.90
2018-09-28T12:08:41.532Z,12.80
2018-09-28T12:11:09.811Z,12.80
2018-09-28T12:13:38.244Z,12.70
2018-09-28T12:16:06.526Z,12.60
2018-09-28T12:18:34.939Z,12.60
2018-09-28T12:21:03.310Z,12.50
2018-09-28T12:23:31.952Z,12.50
2018-09-28T12:26:00.235Z,12.50
2018-09-28T12:28:28.515Z,12.50
2018-09-28T12:30:56.929Z,12.50
2018-09-28T12:33:25.469Z,12.40
2018-09-28T12:35:53.733Z,12.30
2018-09-28T12:38:22.219Z,12.30
2018-09-28T12:40:50.799Z,12.30
2018-09-28T12:43:19.157Z,12.20
2018-09-28T12:45:47.534Z,12.20
2018-09-28T12:48:16.026Z,12.30
2018-09-28T12:50:44.532Z,12.30
2018-09-28T12:53:12.814Z,12.40
2018-09-28T12:55:41.215Z,12.50
2018-09-28T12:58:09.816Z,12.50
2018-09-28T13:00:38.165Z,12.50
2018-09-28T13:03:06.396Z,12.50
2018-09-28T13:05:34.512Z,12.50
2018-09-28T13:08:02.886Z,12.50
2018-09-28T13:10:31.313Z,12.50
2018-09-28T13:12:59.723Z,12.40
2018-09-28T13:15:28.098Z,12.40
2018-09-28T13:17:56.611Z,12.40
2018-09-28T13:20:25.184Z,12.30
2018-09-28T13:22:53.517Z,12.30
2018-09-28T13:25:21.997Z,12.20
2018-09-28T13:27:50.409Z,12.10
2018-09-28T13:30:18.871Z,11.90
2018-09-28T13:32:47.191Z,11.80
2018-09-28T13:35:15.391Z,11.80
2018-09-28T13:37:43.879Z,11.70
2018-09-28T13:40:12.228Z,11.70
2018-09-28T13:42:41.081Z,11.60
2018-09-28T13:45:09.766Z,11.50
2018-09-28T13:47:38.209Z,11.50
2018-09-28T13:50:07.515Z,11.50
2018-09-28T13:52:36.126Z,11.40
2018-09-28T13:55:04.762Z,11.40
2018-09-28T13:57:33.348Z,11.30
2018-09-28T14:00:01.748Z,11.30
2018-09-28T14:02:30.154Z,11.30
2018-09-28T14:04:58.537Z,11.30
2018-09-28T14:07:26.961Z,11.30
2018-09-28T14:09:55.322Z,11.40
2018-09-28T14:12:23.799Z,11.40
2018-09-28T14:14:52.278Z,11.50
2018-09-28T14:17:20.660Z,11.50
2018-09-28T14:19:49.155Z,11.50
2018-09-28T14:22:17.883Z,11.50
2018-09-28T14:24:46.707Z,11.50
2018-09-28T14:27:15.224Z,11.50
2018-09-28T14:29:43.773Z,11.50
2018-09-28T14:32:12.643Z,11.50
2018-09-28T14:34:41.265Z,11.60
2018-09-28T14:37:10.503Z,11.70
2018-09-28T14:42:31.374Z,12.00
2018-09-28T14:45:00.444Z,12.10
2018-09-28T14:47:29.202Z,12.10
2018-09-28T14:49:57.776Z,12.10
2018-09-28T14:52:26.598Z,12.10
2018-09-28T14:54:55.191Z,12.00
2018-09-28T14:57:23.799Z,12.00
2018-09-28T14:59:52.279Z,11.90
2018-09-28T15:02:24.761Z,11.90
2018-09-28T15:04:53.396Z,11.80
2018-09-28T15:07:21.654Z,11.80
2018-09-28T15:09:49.881Z,11.80
2018-09-28T15:12:18.631Z,11.90
2018-09-28T15:14:47.315Z,11.90
2018-09-28T15:17:15.737Z,12.00
2018-09-28T15:19:44.165Z,12.00
2018-09-28T15:22:12.578Z,12.10
2018-09-28T15:24:41.077Z,12.10
2018-09-28T15:27:09.467Z,12.00
2018-09-28T15:29:38.284Z,12.00
2018-09-28T15:32:06.793Z,12.00
2018-09-28T15:34:35.239Z,12.00
2018-09-28T15:37:03.613Z,12.00
2018-09-28T15:39:32.292Z,12.00
2018-09-28T15:42:00.556Z,12.00
2018-09-28T15:44:28.667Z,11.90
2018-09-28T15:46:56.898Z,11.90
2018-09-28T15:49:26.504Z,11.80
2018-09-28T15:51:55.230Z,11.70
2018-09-28T15:54:23.522Z,11.70
2018-09-28T15:56:52.008Z,11.60
2018-09-28T15:59:20.518Z,11.60
2018-09-28T16:01:48.944Z,11.60
2018-09-28T16:04:17.310Z,11.50
2018-09-28T16:06:45.758Z,11.50
2018-09-28T16:09:14.317Z,11.50
2018-09-28T16:11:42.732Z,11.50
2018-09-28T16:14:11.142Z,11.50
2018-09-28T16:16:39.328Z,11.40
2018-09-28T16:19:07.827Z,11.40
2018-09-28T16:21:36.326Z,11.40
2018-09-28T16:24:04.928Z,11.40
2018-09-28T16:26:33.419Z,11.40
2018-09-28T16:29:02.654Z,11.30
2018-09-28T16:31:31.067Z,11.30
2018-09-28T16:33:59.550Z,11.30
2018-09-28T16:36:28.240Z,11.20
2018-09-28T16:38:56.606Z,11.20
2018-09-28T16:41:25.108Z,11.20
2018-09-28T16:43:53.552Z,11.10
2018-09-28T16:46:22.262Z,11.10
2018-09-28T16:48:50.556Z,11.00
2018-09-28T16:51:18.728Z,11.00
2018-09-28T16:53:46.957Z,10.90
2018-09-28T16:56:16.456Z,10.90
2018-09-28T16:58:45.083Z,10.90
2018-09-28T17:01:13.488Z,10.90
2018-09-28T17:03:42.656Z,10.80
2018-09-28T17:06:11.306Z,10.80
2018-09-28T17:08:39.693Z,10.80
2018-09-28T17:11:08.303Z,10.80
2018-09-28T17:13:37.166Z,10.70
2018-09-28T17:16:05.402Z,10.70
2018-09-28T17:18:34.017Z,10.70
2018-09-28T17:21:02.401Z,10.70
2018-09-28T17:23:31.743Z,10.70
2018-09-28T17:26:00.044Z,10.70
2018-09-28T17:28:28.521Z,10.60
2018-09-28T17:30:57.239Z,10.60
2018-09-28T17:33:25.621Z,10.60
2018-09-28T17:35:54.464Z,10.60
2018-09-28T17:38:22.860Z,10.50
2018-09-28T17:40:51.664Z,10.50
2018-09-28T17:43:19.960Z,10.40
2018-09-28T17:45:48.300Z,10.40
2018-09-28T17:48:16.968Z,10.40
2018-09-28T17:50:45.366Z,10.40
2018-09-28T17:53:13.758Z,10.40
2018-09-28T17:55:42.276Z,10.40
2018-09-28T17:58:10.443Z,10.30
2018-09-28T18:00:39.679Z,10.30
2018-09-28T18:03:08.083Z,10.30
2018-09-28T18:05:37.847Z,10.30
2018-09-28T18:08:06.204Z,10.20
2018-09-28T18:10:34.567Z,10.20
2018-09-28T18:13:03.117Z,10.10
2018-09-28T18:15:33.629Z,10.10
2018-09-28T18:18:02.146Z,10.10
2018-09-28T18:20:30.426Z,10.10
2018-09-28T18:22:58.941Z,10.10
2018-09-28T18:25:29.583Z,10.10
2018-09-28T18:27:58.115Z,10.10
2018-09-28T18:30:26.713Z,10.20
2018-09-28T18:32:55.317Z,10.20
2018-09-28T18:35:23.915Z,10.10
2018-09-28T18:37:53.109Z,10.10
2018-09-28T18:40:21.736Z,10.10
2018-09-28T18:42:50.227Z,10.10
2018-09-28T18:45:18.961Z,10.00
2018-09-28T18:47:47.458Z,10.00
2018-09-28T18:50:15.992Z,10.00
2018-09-28T18:52:44.463Z,9.90
2018-09-28T18:55:12.817Z,9.80
2018-09-28T18:57:41.033Z,9.70
2018-09-28T19:00:09.664Z,9.70
2018-09-28T19:02:38.213Z,9.60
2018-09-28T19:05:06.533Z,9.60
2018-09-28T19:07:34.743Z,9.50
2018-09-28T19:10:03.372Z,9.50
2018-09-28T19:12:32.090Z,9.40
2018-09-28T19:15:01.002Z,9.40
2018-09-28T19:17:29.476Z,9.30
2018-09-28T19:19:57.995Z,9.30
2018-09-28T19:22:26.558Z,9.20
2018-09-28T19:24:55.094Z,9.20
2018-09-28T19:27:30.700Z,9.10
2018-09-28T19:29:59.178Z,9.10
2018-09-28T19:32:27.740Z,9.00
2018-09-28T19:34:56.278Z,8.90
2018-09-28T19:37:25.877Z,8.90
2018-09-28T19:39:54.372Z,8.80
2018-09-28T19:42:22.771Z,8.80
2018-09-28T19:44:51.383Z,8.70
2018-09-28T19:47:19.788Z,8.70
2018-09-28T19:49:48.183Z,8.70
2018-09-28T19:52:16.376Z,8.60
2018-09-28T19:54:44.674Z,8.60
2018-09-28T19:57:12.955Z,8.60
2018-09-28T19:59:41.579Z,8.50
2018-09-28T20:02:10.018Z,8.40
2018-09-28T20:04:38.444Z,8.40
2018-09-28T20:07:07.080Z,8.40
2018-09-28T20:09:36.196Z,8.30
2018-09-28T20:12:04.684Z,8.30
2018-09-28T20:14:33.305Z,8.30
2018-09-28T20:17:01.710Z,8.20
2018-09-28T20:19:30.298Z,8.20
2018-09-28T20:21:59.014Z,8.20
2018-09-28T20:24:27.282Z,8.10
2018-09-28T20:26:55.608Z,8.10
2018-09-28T20:29:24.342Z,8.00
2018-09-28T20:31:52.589Z,8.00
2018-09-28T20:34:21.148Z,7.90
2018-09-28T20:36:49.921Z,7.90
2018-09-28T20:39:18.111Z,7.90
2018-09-28T20:41:46.606Z,7.80
2018-09-28T20:44:15.222Z,7.80
2018-09-28T20:46:43.724Z,7.70
2018-09-28T20:49:12.242Z,7.60
2018-09-28T20:51:40.715Z,7.50
2018-09-28T20:54:09.035Z,7.40
2018-09-28T20:56:37.616Z,7.30
2018-09-28T20:59:06.028Z,7.20
2018-09-28T21:01:34.234Z,7.10
2018-09-28T21:04:02.524Z,7.00
2018-09-28T21:06:31.092Z,6.90
2018-09-28T21:08:59.391Z,6.80
2018-09-28T21:11:27.806Z,6.70
2018-09-28T21:13:56.477Z,6.70
2018-09-28T21:16:24.811Z,6.70
2018-09-28T21:18:53.378Z,6.70
2018-09-28T21:21:21.945Z,6.70
2018-09-28T21:23:50.434Z,6.70
2018-09-28T21:26:19.531Z,6.70
2018-09-28T21:28:47.973Z,6.80
2018-09-28T21:31:16.247Z,6.80
2018-09-28T21:33:44.617Z,6.80
2018-09-28T21:36:12.942Z,6.80
2018-09-28T21:38:41.238Z,6.80
2018-09-28T21:41:10.439Z,6.80
2018-09-28T21:43:38.750Z,6.70
2018-09-28T21:46:07.488Z,6.60
2018-09-28T21:48:35.848Z,6.50
2018-09-28T21:51:04.135Z,6.50
2018-09-28T21:53:32.564Z,6.40
2018-09-28T21:56:01.069Z,6.30
2018-09-28T21:58:29.565Z,6.20
2018-09-28T22:00:58.166Z,6.20
2018-09-28T22:03:26.849Z,6.10
2018-09-28T22:05:55.282Z,6.00
2018-09-28T22:08:23.569Z,5.90
2018-09-28T22:10:51.673Z,5.90
2018-09-28T22:13:20.150Z,5.80
2018-09-28T22:15:49.015Z,5.80
2018-09-28T22:18:17.480Z,5.70
2018-09-28T22:20:46.694Z,5.70
2018-09-28T22:23:15.162Z,5.70
2018-09-28T22:25:43.708Z,5.60
2018-09-28T22:28:12.084Z,5.60
2018-09-28T22:30:40.375Z,5.60
2018-09-28T22:33:08.892Z,5.60
2018-09-28T22:35:37.281Z,5.50
2018-09-28T22:38:05.869Z,5.50
2018-09-28T22:40:34.389Z,5.40
2018-09-28T22:43:02.878Z,5.40
2018-09-28T22:45:31.092Z,5.30
2018-09-28T22:47:59.396Z,5.30
2018-09-28T22:50:27.786Z,5.30
2018-09-28T22:52:57.226Z,5.20
2018-09-28T22:55:25.628Z,5.20
2018-09-28T22:57:54.140Z,5.10
2018-09-28T23:00:22.610Z,5.10
2018-09-28T23:02:52.132Z,5.10
2018-09-28T23:05:20.657Z,5.00
2018-09-28T23:07:49.239Z,5.00
2018-09-28T23:10:17.455Z,4.90
2018-09-28T23:12:49.823Z,4.90
2018-09-28T23:15:18.143Z,4.80
2018-09-28T23:17:46.615Z,4.80
2018-09-28T23:20:15.016Z,4.80
2018-09-28T23:22:43.639Z,4.70
2018-09-28T23:25:12.021Z,4.70
2018-09-28T23:27:40.345Z,4.70
2018-09-28T23:30:08.942Z,4.60
2018-09-28T23:32:37.446Z,4.60
2018-09-28T23:35:05.950Z,4.60
2018-09-28T23:37:34.239Z,4.50
2018-09-28T23:40:04.857Z,4.50
2018-09-28T23:42:33.166Z,4.40
2018-09-28T23:45:01.354Z,4.40
2018-09-28T23:47:30.034Z,4.40
2018-09-28T23:50:01.350Z,4.40
2018-09-28T23:52:29.656Z,4.40
2018-09-28T23:54:57.930Z,4.40
2018-09-28T23:57:26.544Z,4.40
2018-09-28T23:59:54.946Z,4.40
